createdAt,value
2019-03-21T00:00:36.441Z,18.83
2019-03-21T00:01:36.428Z,18.87
2019-03-21T00:02:36.416Z,18.91
2019-03-21T00:03:36.411Z,18.82
2019-03-21T00:04:36.393Z,18.83
2019-03-21T00:05:36.459Z,18.82
2019-03-21T00:06:36.383Z,18.83
2019-03-21T00:07:36.399Z,18.83
2019-03-21T00:08:36.355Z,18.83
2019-03-21T00:09:36.361Z,18.82
2019-03-21T00:10:36.353Z,18.83
2019-03-21T00:11:36.312Z,18.77
2019-03-21T00:12:36.330Z,18.84
2019-03-21T00:13:36.336Z,18.82
2019-03-21T00:14:36.291Z,18.83
2019-03-21T00:15:36.271Z,18.82
2019-03-21T00:16:36.265Z,18.83
2019-03-21T00:17:36.254Z,18.80
2019-03-21T00:18:36.260Z,18.79
2019-03-21T00:19:36.272Z,18.65
2019-03-21T00:20:36.291Z,18.83
2019-03-21T00:21:36.218Z,18.76
2019-03-21T00:22:36.257Z,18.79
2019-03-21T00:23:36.206Z,18.65
2019-03-21T00:24:36.194Z,18.82
2019-03-21T00:25:36.187Z,18.80
2019-03-21T00:26:36.210Z,18.67
2019-03-21T00:27:36.145Z,18.91
2019-03-21T00:28:36.151Z,18.84
2019-03-21T00:29:36.143Z,18.87
2019-03-21T00:30:36.126Z,18.70
2019-03-21T00:31:36.118Z,18.72
2019-03-21T00:32:36.146Z,18.82
2019-03-21T00:33:36.103Z,18.84
2019-03-21T00:34:36.086Z,18.83
2019-03-21T00:35:38.504Z,18.80
2019-03-21T00:36:36.038Z,18.83
2019-03-21T00:37:36.036Z,18.76
2019-03-21T00:38:36.056Z,18.79
2019-03-21T00:39:36.022Z,18.73
2019-03-21T00:40:36.012Z,18.79
2019-03-21T00:41:35.979Z,18.79
2019-03-21T00:42:35.979Z,18.74
2019-03-21T00:43:35.969Z,18.76
2019-03-21T00:44:36.053Z,18.77
2019-03-21T00:45:35.961Z,18.77
2019-03-21T00:46:35.948Z,18.67
2019-03-21T00:47:35.933Z,18.74
2019-03-21T00:48:35.923Z,18.67
2019-03-21T00:49:35.890Z,18.70
2019-03-21T00:50:35.928Z,18.61
2019-03-21T00:51:35.877Z,18.76
2019-03-21T00:52:35.862Z,18.77
2019-03-21T00:53:35.853Z,18.64
2019-03-21T00:54:35.842Z,18.73
2019-03-21T00:55:35.842Z,18.79
2019-03-21T00:56:35.868Z,18.79
2019-03-21T00:57:35.853Z,18.77
2019-03-21T00:58:35.795Z,18.62
2019-03-21T00:59:35.783Z,18.72
2019-03-21T01:00:35.793Z,18.68
2019-03-21T01:01:35.769Z,18.67
2019-03-21T01:02:35.766Z,18.64
2019-03-21T01:03:35.811Z,18.62
2019-03-21T01:04:35.757Z,18.65
2019-03-21T01:05:35.741Z,18.67
2019-03-21T01:06:35.738Z,18.67
2019-03-21T01:07:35.725Z,18.70
2019-03-21T01:08:35.709Z,18.67
2019-03-21T01:09:35.723Z,18.67
2019-03-21T01:10:35.735Z,18.59
2019-03-21T01:11:35.674Z,18.64
2019-03-21T01:12:35.663Z,18.72
2019-03-21T01:13:35.637Z,18.64
2019-03-21T01:14:35.639Z,18.67
2019-03-21T01:15:35.621Z,18.62
2019-03-21T01:16:35.648Z,18.62
2019-03-21T01:17:35.644Z,18.64
2019-03-21T01:18:35.594Z,18.64
2019-03-21T01:19:35.585Z,18.65
2019-03-21T01:20:35.573Z,18.61
2019-03-21T01:21:35.558Z,18.61
2019-03-21T01:22:35.533Z,18.61
2019-03-21T01:23:35.583Z,18.64
2019-03-21T01:24:35.517Z,18.67
2019-03-21T01:25:35.490Z,18.67
2019-03-21T01:26:35.491Z,18.72
2019-03-21T01:27:35.492Z,18.59
2019-03-21T01:28:35.459Z,18.70
2019-03-21T01:29:35.488Z,18.62
2019-03-21T01:30:35.440Z,18.64
2019-03-21T01:31:35.445Z,18.62
2019-03-21T01:32:35.438Z,18.61
2019-03-21T01:33:35.429Z,18.58
2019-03-21T01:34:35.420Z,18.61
2019-03-21T01:35:35.434Z,18.61
2019-03-21T01:36:35.372Z,18.59
2019-03-21T01:37:35.364Z,18.61
2019-03-21T01:38:35.349Z,18.62
2019-03-21T01:39:35.342Z,18.61
2019-03-21T01:40:35.340Z,18.61
2019-03-21T01:41:35.363Z,18.62
2019-03-21T01:42:35.321Z,18.62
2019-03-21T01:43:35.306Z,18.58
2019-03-21T01:44:40.961Z,18.61
2019-03-21T01:45:36.274Z,18.61
2019-03-21T01:46:35.254Z,18.54
2019-03-21T01:47:35.299Z,18.62
2019-03-21T01:48:35.249Z,18.58
2019-03-21T01:49:35.227Z,18.54
2019-03-21T01:50:35.220Z,18.61
2019-03-21T01:51:35.215Z,18.58
2019-03-21T01:52:35.200Z,18.59
2019-03-21T01:53:35.245Z,18.52
2019-03-21T01:54:35.174Z,18.61
2019-03-21T01:55:35.209Z,18.52
2019-03-21T01:56:35.154Z,18.49
2019-03-21T01:57:35.186Z,18.52
2019-03-21T01:58:35.163Z,18.59
2019-03-21T01:59:35.137Z,18.52
2019-03-21T02:00:35.125Z,18.47
2019-03-21T02:01:35.132Z,18.50
2019-03-21T02:02:35.091Z,18.47
2019-03-21T02:03:35.086Z,18.49
2019-03-21T02:04:35.066Z,18.54
2019-03-21T02:05:35.060Z,18.50
2019-03-21T02:06:35.036Z,18.52
2019-03-21T02:07:35.068Z,18.54
2019-03-21T02:08:35.034Z,18.50
2019-03-21T02:09:35.017Z,18.55
2019-03-21T02:10:35.008Z,18.49
2019-03-21T02:11:35.003Z,18.50
2019-03-21T02:12:34.980Z,18.55
2019-03-21T02:13:35.015Z,18.46
2019-03-21T02:14:34.958Z,18.49
2019-03-21T02:15:34.953Z,18.49
2019-03-21T02:16:34.935Z,18.46
2019-03-21T02:17:34.922Z,18.52
2019-03-21T02:18:34.927Z,18.54
2019-03-21T02:19:34.954Z,18.52
2019-03-21T02:20:34.899Z,18.49
2019-03-21T02:21:34.882Z,18.43
2019-03-21T02:22:34.875Z,18.40
2019-03-21T02:23:34.855Z,18.44
2019-03-21T02:24:34.855Z,18.50
2019-03-21T02:25:34.937Z,18.44
2019-03-21T02:26:34.826Z,18.50
2019-03-21T02:27:34.808Z,18.46
2019-03-21T02:28:34.810Z,18.50
2019-03-21T02:29:34.780Z,18.50
2019-03-21T02:30:34.784Z,18.44
2019-03-21T02:31:34.809Z,18.55
2019-03-21T02:32:34.849Z,18.50
2019-03-21T02:33:34.753Z,18.42
2019-03-21T02:34:34.751Z,18.47
2019-03-21T02:35:34.651Z,18.55
2019-03-21T02:36:34.630Z,18.40
2019-03-21T02:37:34.673Z,18.43
2019-03-21T02:38:34.702Z,18.42
2019-03-21T02:39:34.689Z,18.54
2019-03-21T02:40:34.676Z,18.46
2019-03-21T02:41:34.672Z,18.43
2019-03-21T02:42:34.656Z,18.40
2019-03-21T02:43:34.700Z,18.46
2019-03-21T02:44:34.715Z,18.43
2019-03-21T02:45:34.660Z,18.49
2019-03-21T02:46:34.618Z,18.43
2019-03-21T02:47:34.606Z,18.40
2019-03-21T02:48:34.588Z,18.37
2019-03-21T02:49:34.614Z,18.43
2019-03-21T02:50:34.551Z,18.37
2019-03-21T02:51:34.541Z,18.40
2019-03-21T02:52:34.530Z,18.39
2019-03-21T02:53:34.531Z,18.40
2019-03-21T02:54:34.513Z,18.42
2019-03-21T02:55:34.541Z,18.37
2019-03-21T02:56:34.537Z,18.40
2019-03-21T02:57:34.482Z,18.40
2019-03-21T02:58:34.474Z,18.37
2019-03-21T02:59:34.531Z,18.46
2019-03-21T03:00:34.451Z,18.36
2019-03-21T03:01:34.493Z,18.44
2019-03-21T03:02:37.219Z,18.52
2019-03-21T03:03:34.425Z,18.37
2019-03-21T03:04:34.405Z,18.46
2019-03-21T03:05:34.399Z,18.37
2019-03-21T03:06:34.385Z,18.50
2019-03-21T03:07:34.411Z,18.49
2019-03-21T03:08:34.351Z,18.42
2019-03-21T03:09:34.338Z,18.42
2019-03-21T03:10:34.338Z,18.46
2019-03-21T03:11:34.320Z,18.37
2019-03-21T03:12:34.310Z,18.39
2019-03-21T03:13:34.349Z,18.39
2019-03-21T03:14:34.296Z,18.37
2019-03-21T03:15:34.286Z,18.49
2019-03-21T03:16:34.273Z,18.43
2019-03-21T03:17:34.258Z,18.33
2019-03-21T03:18:34.248Z,18.33
2019-03-21T03:19:34.291Z,18.33
2019-03-21T03:20:34.225Z,18.33
2019-03-21T03:21:34.201Z,18.42
2019-03-21T03:22:34.212Z,18.37
2019-03-21T03:23:34.195Z,18.33
2019-03-21T03:24:34.181Z,18.34
2019-03-21T03:25:35.060Z,18.39
2019-03-21T03:26:34.165Z,18.36
2019-03-21T03:27:34.147Z,18.43
2019-03-21T03:28:34.137Z,18.33
2019-03-21T03:29:34.119Z,18.33
2019-03-21T03:30:34.167Z,18.42
2019-03-21T03:31:34.237Z,18.37
2019-03-21T03:32:34.161Z,18.43
2019-03-21T03:33:34.088Z,18.37
2019-03-21T03:34:34.098Z,18.37
2019-03-21T03:35:34.048Z,18.39
2019-03-21T03:36:34.098Z,18.39
2019-03-21T03:37:34.031Z,18.40
2019-03-21T03:38:34.029Z,18.44
2019-03-21T03:39:36.854Z,18.39
2019-03-21T03:40:34.019Z,18.39
2019-03-21T03:41:33.995Z,18.40
2019-03-21T03:42:34.022Z,18.42
2019-03-21T03:43:33.975Z,18.39
2019-03-21T03:44:33.967Z,18.40
2019-03-21T03:45:38.066Z,18.29
2019-03-21T03:46:33.965Z,18.39
2019-03-21T03:47:33.956Z,18.34
2019-03-21T03:48:33.942Z,18.29
2019-03-21T03:49:33.901Z,18.34
2019-03-21T03:50:33.940Z,18.44
2019-03-21T03:51:33.882Z,18.34
2019-03-21T03:52:33.899Z,18.31
2019-03-21T03:53:33.854Z,18.29
2019-03-21T03:54:33.849Z,18.34
2019-03-21T03:55:33.822Z,18.29
2019-03-21T03:56:33.864Z,18.39
2019-03-21T03:57:33.884Z,18.40
2019-03-21T03:58:33.831Z,18.29
2019-03-21T03:59:33.811Z,18.33
2019-03-21T04:00:33.805Z,18.36
2019-03-21T04:01:33.791Z,18.36
2019-03-21T04:02:33.815Z,18.31
2019-03-21T04:03:33.775Z,18.29
2019-03-21T04:04:33.750Z,18.34
2019-03-21T04:05:33.736Z,18.29
2019-03-21T04:06:33.731Z,18.36
2019-03-21T04:07:33.738Z,18.36
2019-03-21T04:08:33.704Z,18.37
2019-03-21T04:09:33.685Z,18.31
2019-03-21T04:10:33.662Z,18.28
2019-03-21T04:11:33.658Z,18.29
2019-03-21T04:12:33.659Z,18.31
2019-03-21T04:13:33.681Z,18.27
2019-03-21T04:14:33.642Z,18.31
2019-03-21T04:15:33.638Z,18.28
2019-03-21T04:16:33.609Z,18.29
2019-03-21T04:17:33.616Z,18.27
2019-03-21T04:18:33.590Z,18.27
2019-03-21T04:19:33.601Z,18.25
2019-03-21T04:20:33.599Z,18.29
2019-03-21T04:21:33.544Z,18.22
2019-03-21T04:22:33.636Z,18.28
2019-03-21T04:23:33.552Z,18.33
2019-03-21T04:24:33.516Z,18.29
2019-03-21T04:25:33.507Z,18.25
2019-03-21T04:26:33.539Z,18.29
2019-03-21T04:27:33.484Z,18.31
2019-03-21T04:28:33.557Z,18.29
2019-03-21T04:29:33.467Z,18.29
2019-03-21T04:30:33.452Z,18.27
2019-03-21T04:31:33.433Z,18.33
2019-03-21T04:32:33.454Z,18.24
2019-03-21T04:33:33.425Z,18.31
2019-03-21T04:34:33.410Z,18.28
2019-03-21T04:35:33.392Z,18.28
2019-03-21T04:36:33.383Z,18.25
2019-03-21T04:37:33.433Z,18.31
2019-03-21T04:38:33.371Z,18.28
2019-03-21T04:39:33.365Z,18.33
2019-03-21T04:40:33.338Z,18.29
2019-03-21T04:41:33.324Z,18.31
2019-03-21T04:42:33.313Z,18.25
2019-03-21T04:43:33.329Z,18.24
2019-03-21T04:44:33.291Z,18.27
2019-03-21T04:45:33.324Z,18.33
2019-03-21T04:46:33.279Z,18.27
2019-03-21T04:47:33.260Z,18.18
2019-03-21T04:48:33.241Z,18.25
2019-03-21T04:49:33.235Z,18.28
2019-03-21T04:50:33.226Z,18.27
2019-03-21T04:51:34.078Z,18.29
2019-03-21T04:52:33.286Z,18.21
2019-03-21T04:53:33.196Z,18.22
2019-03-21T04:54:33.202Z,18.24
2019-03-21T04:55:33.185Z,18.31
2019-03-21T04:56:33.164Z,18.18
2019-03-21T04:57:33.170Z,18.22
2019-03-21T04:58:33.193Z,18.18
2019-03-21T04:59:33.142Z,18.27
2019-03-21T05:00:33.181Z,18.21
2019-03-21T05:01:33.121Z,18.25
2019-03-21T05:02:33.128Z,18.22
2019-03-21T05:03:33.096Z,18.21
2019-03-21T05:04:33.102Z,18.21
2019-03-21T05:05:33.083Z,18.25
2019-03-21T05:06:33.102Z,18.19
2019-03-21T05:07:33.098Z,18.18
2019-03-21T05:08:33.038Z,18.21
2019-03-21T05:09:33.031Z,18.21
2019-03-21T05:10:33.033Z,18.21
2019-03-21T05:11:33.006Z,18.27
2019-03-21T05:12:32.997Z,18.21
2019-03-21T05:13:33.062Z,18.21
2019-03-21T05:14:32.982Z,18.18
2019-03-21T05:15:32.967Z,18.19
2019-03-21T05:16:32.976Z,18.19
2019-03-21T05:17:32.944Z,18.24
2019-03-21T05:18:32.936Z,18.27
2019-03-21T05:19:32.979Z,18.24
2019-03-21T05:20:32.897Z,18.18
2019-03-21T05:21:32.880Z,18.24
2019-03-21T05:22:32.871Z,18.18
2019-03-21T05:23:32.866Z,18.24
2019-03-21T05:24:32.872Z,18.22
2019-03-21T05:25:32.911Z,18.24
2019-03-21T05:26:32.845Z,18.21
2019-03-21T05:27:32.848Z,18.27
2019-03-21T05:28:32.830Z,18.19
2019-03-21T05:29:32.812Z,18.17
2019-03-21T05:30:32.824Z,18.18
2019-03-21T05:31:32.841Z,18.19
2019-03-21T05:32:32.846Z,18.18
2019-03-21T05:33:32.767Z,18.19
2019-03-21T05:34:32.755Z,18.24
2019-03-21T05:35:32.746Z,18.21
2019-03-21T05:36:32.741Z,18.19
2019-03-21T05:37:32.740Z,18.19
2019-03-21T05:38:32.743Z,18.22
2019-03-21T05:39:32.694Z,18.28
2019-03-21T05:40:32.736Z,18.24
2019-03-21T05:41:32.676Z,18.17
2019-03-21T05:42:32.679Z,18.17
2019-03-21T05:43:32.718Z,18.19
2019-03-21T05:44:32.630Z,18.24
2019-03-21T05:45:32.654Z,18.22
2019-03-21T05:46:32.676Z,18.27
2019-03-21T05:47:32.612Z,18.19
2019-03-21T05:48:32.677Z,18.25
2019-03-21T05:49:32.574Z,18.22
2019-03-21T05:50:32.575Z,18.22
2019-03-21T05:51:32.578Z,18.28
2019-03-21T05:52:32.606Z,18.24
2019-03-21T05:53:32.546Z,18.24
2019-03-21T05:54:32.529Z,18.27
2019-03-21T05:55:32.529Z,18.22
2019-03-21T05:56:32.517Z,18.21
2019-03-21T05:57:32.495Z,18.22
2019-03-21T05:58:32.512Z,18.24
2019-03-21T05:59:32.463Z,18.27
2019-03-21T06:00:32.463Z,18.24
2019-03-21T06:01:32.430Z,18.24
2019-03-21T06:02:32.442Z,18.33
2019-03-21T06:03:32.480Z,18.33
2019-03-21T06:04:32.477Z,18.29
2019-03-21T06:05:32.452Z,18.28
2019-03-21T06:06:32.404Z,18.28
2019-03-21T06:07:32.390Z,18.34
2019-03-21T06:08:32.396Z,18.33
2019-03-21T06:09:32.370Z,18.29
2019-03-21T06:10:32.379Z,18.28
2019-03-21T06:11:32.407Z,18.27
2019-03-21T06:12:32.326Z,18.31
2019-03-21T06:13:32.325Z,18.33
2019-03-21T06:14:32.313Z,18.33
2019-03-21T06:15:32.299Z,18.27
2019-03-21T06:16:37.606Z,18.33
2019-03-21T06:17:33.309Z,18.25
2019-03-21T06:18:32.250Z,18.24
2019-03-21T06:19:32.262Z,18.27
2019-03-21T06:20:32.247Z,18.29
2019-03-21T06:21:32.259Z,18.28
2019-03-21T06:22:32.220Z,18.33
2019-03-21T06:23:32.238Z,18.33
2019-03-21T06:24:32.192Z,18.31
2019-03-21T06:25:32.189Z,18.33
2019-03-21T06:26:32.182Z,18.28
2019-03-21T06:27:32.170Z,18.28
2019-03-21T06:28:32.174Z,18.28
2019-03-21T06:29:32.150Z,18.31
2019-03-21T06:30:32.143Z,18.27
2019-03-21T06:31:32.106Z,18.33
2019-03-21T06:32:32.122Z,18.28
2019-03-21T06:33:32.150Z,18.33
2019-03-21T06:34:32.112Z,18.31
2019-03-21T06:35:32.089Z,18.29
2019-03-21T06:36:32.079Z,18.36
2019-03-21T06:37:32.058Z,18.31
2019-03-21T06:38:32.053Z,18.28
2019-03-21T06:39:32.050Z,18.29
2019-03-21T06:40:31.996Z,18.29
2019-03-21T06:41:32.052Z,18.31
2019-03-21T06:42:31.995Z,18.33
2019-03-21T06:43:31.985Z,18.40
2019-03-21T06:44:31.979Z,18.37
2019-03-21T06:45:31.966Z,18.37
2019-03-21T06:46:31.998Z,18.37
2019-03-21T06:47:31.983Z,18.40
2019-03-21T06:48:31.945Z,18.40
2019-03-21T06:49:31.935Z,18.37
2019-03-21T06:50:31.911Z,18.34
2019-03-21T06:51:31.918Z,18.44
2019-03-21T06:52:31.898Z,18.37
2019-03-21T06:53:31.916Z,18.44
2019-03-21T06:54:31.881Z,18.47
2019-03-21T06:55:31.833Z,18.39
2019-03-21T06:56:31.853Z,18.55
2019-03-21T06:57:31.846Z,18.55
2019-03-21T06:58:31.889Z,18.52
2019-03-21T06:59:31.804Z,18.46
2019-03-21T07:00:31.797Z,18.46
2019-03-21T07:01:31.793Z,18.49
2019-03-21T07:02:31.776Z,18.57
2019-03-21T07:03:31.767Z,18.65
2019-03-21T07:04:31.768Z,18.64
2019-03-21T07:05:31.725Z,18.65
2019-03-21T07:06:31.711Z,18.67
2019-03-21T07:07:31.718Z,18.64
2019-03-21T07:08:31.709Z,18.61
2019-03-21T07:09:31.709Z,18.70
2019-03-21T07:10:31.717Z,18.72
2019-03-21T07:11:31.699Z,18.77
2019-03-21T07:12:31.669Z,18.68
2019-03-21T07:13:31.663Z,18.76
2019-03-21T07:14:31.637Z,18.73
2019-03-21T07:15:31.615Z,18.77
2019-03-21T07:16:31.685Z,18.82
2019-03-21T07:17:31.613Z,18.82
2019-03-21T07:18:31.597Z,18.86
2019-03-21T07:19:31.576Z,18.83
2019-03-21T07:20:31.575Z,18.87
2019-03-21T07:21:31.572Z,18.90
2019-03-21T07:22:31.592Z,18.94
2019-03-21T07:23:31.538Z,18.95
2019-03-21T07:24:31.512Z,18.94
2019-03-21T07:25:31.523Z,18.97
2019-03-21T07:26:31.512Z,18.91
2019-03-21T07:27:31.497Z,18.97
2019-03-21T07:28:31.522Z,19.06
2019-03-21T07:29:31.515Z,19.11
2019-03-21T07:30:31.476Z,19.08
2019-03-21T07:31:31.451Z,19.01
2019-03-21T07:32:33.574Z,19.08
2019-03-21T07:33:31.432Z,19.08
2019-03-21T07:34:31.456Z,19.21
2019-03-21T07:35:31.426Z,19.15
2019-03-21T07:36:31.437Z,19.13
2019-03-21T07:37:31.386Z,19.17
2019-03-21T07:38:31.385Z,19.21
2019-03-21T07:39:31.372Z,19.08
2019-03-21T07:40:31.372Z,19.20
2019-03-21T07:41:31.347Z,19.21
2019-03-21T07:42:31.377Z,19.23
2019-03-21T07:43:31.313Z,19.23
2019-03-21T07:44:31.309Z,19.31
2019-03-21T07:45:31.297Z,19.23
2019-03-21T07:46:32.149Z,19.25
2019-03-21T07:47:31.268Z,19.35
2019-03-21T07:48:31.332Z,19.31
2019-03-21T07:49:32.720Z,19.33
2019-03-21T07:50:31.243Z,19.36
2019-03-21T07:51:31.233Z,19.33
2019-03-21T07:52:31.220Z,19.42
2019-03-21T07:53:31.220Z,19.46
2019-03-21T07:54:31.230Z,19.46
2019-03-21T07:55:31.184Z,19.40
2019-03-21T07:56:31.179Z,19.42
2019-03-21T07:57:31.173Z,19.46
2019-03-21T07:58:31.161Z,19.43
2019-03-21T07:59:31.134Z,19.51
2019-03-21T08:00:31.164Z,19.54
2019-03-21T08:01:31.122Z,19.51
2019-03-21T08:02:31.108Z,19.53
2019-03-21T08:03:31.097Z,19.57
2019-03-21T08:04:31.084Z,19.60
2019-03-21T08:05:39.842Z,19.57
2019-03-21T08:06:32.081Z,19.61
2019-03-21T08:07:31.059Z,19.66
2019-03-21T08:08:31.045Z,19.70
2019-03-21T08:09:31.147Z,19.66
2019-03-21T08:10:31.044Z,19.72
2019-03-21T08:11:31.007Z,19.72
2019-03-21T08:12:31.065Z,19.72
2019-03-21T08:13:30.986Z,19.68
2019-03-21T08:14:31.013Z,19.73
2019-03-21T08:15:30.941Z,19.78
2019-03-21T08:16:30.945Z,19.78
2019-03-21T08:17:30.973Z,19.84
2019-03-21T08:18:30.936Z,19.87
2019-03-21T08:19:30.924Z,19.84
2019-03-21T08:20:30.930Z,19.79
2019-03-21T08:21:30.895Z,19.84
2019-03-21T08:22:30.886Z,19.78
2019-03-21T08:23:30.885Z,19.84
2019-03-21T08:24:30.875Z,19.83
2019-03-21T08:25:30.861Z,19.86
2019-03-21T08:26:30.883Z,19.90
2019-03-21T08:27:30.831Z,19.88
2019-03-21T08:28:30.809Z,19.91
2019-03-21T08:29:30.813Z,19.95
2019-03-21T08:30:30.805Z,19.93
2019-03-21T08:31:30.828Z,19.91
2019-03-21T08:32:30.782Z,19.97
2019-03-21T08:33:30.775Z,19.98
2019-03-21T08:34:30.753Z,20.03
2019-03-21T08:35:30.745Z,20.02
2019-03-21T08:36:30.728Z,20.05
2019-03-21T08:37:30.769Z,20.03
2019-03-21T08:38:30.716Z,20.02
2019-03-21T08:39:30.695Z,20.03
2019-03-21T08:40:30.687Z,20.08
2019-03-21T08:41:30.687Z,20.10
2019-03-21T08:42:30.670Z,20.06
2019-03-21T08:43:30.903Z,20.12
2019-03-21T08:44:30.651Z,20.12
2019-03-21T08:45:30.625Z,20.09
2019-03-21T08:46:30.619Z,20.12
2019-03-21T08:47:30.606Z,20.13
2019-03-21T08:48:30.595Z,20.09
2019-03-21T08:49:30.626Z,20.21
2019-03-21T08:50:30.605Z,20.24
2019-03-21T08:51:30.570Z,20.20
2019-03-21T08:52:30.562Z,20.13
2019-03-21T08:53:30.538Z,20.21
2019-03-21T08:54:30.514Z,20.25
2019-03-21T08:55:30.566Z,20.24
2019-03-21T08:56:30.523Z,20.27
2019-03-21T08:57:30.498Z,20.23
2019-03-21T08:58:30.496Z,20.28
2019-03-21T08:59:30.475Z,20.31
2019-03-21T09:00:34.478Z,20.34
2019-03-21T09:01:30.500Z,20.33
2019-03-21T09:02:30.431Z,20.28
2019-03-21T09:03:30.426Z,20.31
2019-03-21T09:04:30.424Z,20.38
2019-03-21T09:05:30.408Z,20.38
2019-03-21T09:06:30.409Z,20.38
2019-03-21T09:07:30.484Z,20.39
2019-03-21T09:08:30.362Z,20.35
2019-03-21T09:09:30.385Z,20.41
2019-03-21T09:10:30.365Z,20.43
2019-03-21T09:11:30.365Z,20.47
2019-03-21T09:12:30.341Z,20.49
2019-03-21T09:13:30.362Z,20.46
2019-03-21T09:14:30.314Z,20.39
2019-03-21T09:15:30.219Z,20.23
2019-03-21T09:16:30.414Z,20.00
2019-03-21T09:17:30.184Z,19.91
2019-03-21T09:18:30.169Z,19.75
2019-03-21T09:19:30.188Z,19.58
2019-03-21T09:20:30.152Z,19.46
2019-03-21T09:21:30.147Z,19.25
2019-03-21T09:22:30.127Z,19.20
2019-03-21T09:23:30.114Z,19.06
2019-03-21T09:24:30.172Z,18.92
2019-03-21T09:25:30.119Z,18.94
2019-03-21T09:26:30.100Z,18.86
2019-03-21T09:27:30.066Z,18.83
2019-03-21T09:28:30.068Z,18.79
2019-03-21T09:29:30.050Z,18.82
2019-03-21T09:30:30.073Z,18.80
2019-03-21T09:31:30.024Z,18.67
2019-03-21T09:32:30.028Z,18.70
2019-03-21T09:33:30.009Z,18.83
2019-03-21T09:34:30.020Z,18.79
2019-03-21T09:35:29.987Z,18.76
2019-03-21T09:36:30.024Z,18.83
2019-03-21T09:37:29.970Z,18.82
2019-03-21T09:38:29.949Z,18.84
2019-03-21T09:39:29.947Z,18.84
2019-03-21T09:40:29.928Z,18.84
2019-03-21T09:41:29.928Z,18.86
2019-03-21T09:42:29.945Z,18.87
2019-03-21T09:43:29.896Z,18.90
2019-03-21T09:44:29.942Z,18.86
2019-03-21T09:45:29.864Z,18.83
2019-03-21T09:46:29.868Z,18.92
2019-03-21T09:47:29.857Z,18.87
2019-03-21T09:48:29.849Z,18.95
2019-03-21T09:49:29.829Z,18.92
2019-03-21T09:50:29.898Z,18.94
2019-03-21T09:51:31.174Z,18.97
2019-03-21T09:52:29.807Z,18.98
2019-03-21T09:53:29.796Z,19.06
2019-03-21T09:54:29.765Z,19.06
2019-03-21T09:55:29.776Z,19.17
2019-03-21T09:56:29.808Z,19.21
2019-03-21T09:57:29.748Z,19.20
2019-03-21T09:58:29.731Z,19.28
2019-03-21T09:59:29.729Z,19.25
2019-03-21T10:00:29.707Z,19.29
2019-03-21T10:01:29.708Z,19.36
2019-03-21T10:02:29.718Z,19.46
2019-03-21T10:03:29.682Z,19.48
2019-03-21T10:04:29.718Z,19.63
2019-03-21T10:05:29.648Z,19.60
2019-03-21T10:06:29.648Z,19.57
2019-03-21T10:07:29.624Z,19.72
2019-03-21T10:08:29.628Z,19.70
2019-03-21T10:09:29.613Z,19.72
2019-03-21T10:10:29.651Z,19.75
2019-03-21T10:11:29.591Z,19.90
2019-03-21T10:12:29.567Z,19.80
2019-03-21T10:13:29.569Z,19.93
2019-03-21T10:14:29.547Z,19.98
2019-03-21T10:15:29.550Z,20.12
2019-03-21T10:16:29.594Z,20.21
2019-03-21T10:17:29.524Z,20.21
2019-03-21T10:18:29.507Z,20.15
2019-03-21T10:19:29.508Z,20.20
2019-03-21T10:20:29.566Z,20.21
2019-03-21T10:21:29.464Z,20.23
2019-03-21T10:22:29.518Z,20.23
2019-03-21T10:23:29.448Z,20.33
2019-03-21T10:24:29.440Z,20.34
2019-03-21T10:25:29.414Z,20.47
2019-03-21T10:26:29.428Z,20.49
2019-03-21T10:27:29.406Z,20.62
2019-03-21T10:28:29.434Z,20.71
2019-03-21T10:29:29.397Z,20.62
2019-03-21T10:30:29.368Z,20.72
2019-03-21T10:31:29.371Z,20.76
2019-03-21T10:32:29.338Z,20.77
2019-03-21T10:33:29.344Z,20.96
2019-03-21T10:34:29.362Z,20.98
2019-03-21T10:35:29.330Z,21.05
2019-03-21T10:36:29.323Z,21.14
2019-03-21T10:37:29.306Z,21.21
2019-03-21T10:38:29.290Z,21.32
2019-03-21T10:39:29.319Z,21.34
2019-03-21T10:40:29.278Z,21.56
2019-03-21T10:41:29.279Z,21.69
2019-03-21T10:42:29.248Z,21.72
2019-03-21T10:43:29.220Z,21.82
2019-03-21T10:44:29.232Z,22.01
2019-03-21T10:45:29.253Z,21.99
2019-03-21T10:46:29.221Z,22.14
2019-03-21T10:47:29.188Z,22.10
2019-03-21T10:48:29.199Z,22.27
2019-03-21T10:49:29.168Z,22.32
2019-03-21T10:50:29.168Z,22.35
2019-03-21T10:51:29.182Z,22.39
2019-03-21T10:52:29.136Z,22.41
2019-03-21T10:53:29.162Z,22.22
2019-03-21T10:54:29.106Z,22.13
2019-03-21T10:55:29.088Z,22.07
2019-03-21T10:56:29.135Z,21.98
2019-03-21T10:57:29.147Z,21.83
2019-03-21T10:58:29.070Z,21.75
2019-03-21T10:59:29.065Z,21.66
2019-03-21T11:00:29.046Z,21.59
2019-03-21T11:01:29.048Z,21.57
2019-03-21T11:02:29.032Z,21.50
2019-03-21T11:03:29.029Z,21.39
2019-03-21T11:04:29.152Z,21.27
2019-03-21T11:05:28.999Z,21.20
2019-03-21T11:06:29.002Z,21.09
2019-03-21T11:07:28.973Z,21.01
2019-03-21T11:08:28.962Z,20.93
2019-03-21T11:09:28.955Z,20.84
2019-03-21T11:10:28.994Z,20.84
2019-03-21T11:11:29.018Z,20.76
2019-03-21T11:12:28.928Z,20.58
2019-03-21T11:13:28.992Z,20.61
2019-03-21T11:14:28.998Z,20.65
2019-03-21T11:15:28.885Z,20.68
2019-03-21T11:16:31.352Z,20.62
2019-03-21T11:17:28.857Z,20.61
2019-03-21T11:18:35.938Z,20.50
2019-03-21T11:19:29.939Z,20.50
2019-03-21T11:20:28.912Z,20.50
2019-03-21T11:21:28.916Z,20.50
2019-03-21T11:22:28.927Z,20.51
2019-03-21T11:23:28.891Z,20.58
2019-03-21T11:24:28.821Z,20.51
2019-03-21T11:25:28.859Z,20.50
2019-03-21T11:26:28.879Z,20.58
2019-03-21T11:27:28.853Z,20.54
2019-03-21T11:28:28.843Z,20.54
2019-03-21T11:29:28.804Z,20.51
2019-03-21T11:30:28.849Z,20.56
2019-03-21T11:31:28.847Z,20.51
2019-03-21T11:32:28.844Z,20.56
2019-03-21T11:33:28.783Z,20.53
2019-03-21T11:34:28.775Z,20.51
2019-03-21T11:35:28.661Z,20.47
2019-03-21T11:36:37.856Z,20.42
2019-03-21T11:37:29.753Z,20.43
2019-03-21T11:38:28.635Z,20.47
2019-03-21T11:39:28.757Z,20.38
2019-03-21T11:40:28.624Z,20.42
2019-03-21T11:41:28.603Z,20.41
2019-03-21T11:42:29.251Z,20.34
2019-03-21T11:43:28.658Z,20.33
2019-03-21T11:44:28.659Z,20.34
2019-03-21T11:45:28.698Z,20.31
2019-03-21T11:46:28.670Z,20.30
2019-03-21T11:47:28.605Z,20.18
2019-03-21T11:48:28.528Z,20.12
2019-03-21T11:49:28.497Z,20.02
2019-03-21T11:50:28.515Z,20.00
2019-03-21T11:51:28.535Z,19.91
2019-03-21T11:52:28.478Z,19.78
2019-03-21T11:53:28.457Z,19.73
2019-03-21T11:54:28.455Z,19.66
2019-03-21T11:55:28.423Z,19.66
2019-03-21T11:56:28.508Z,19.57
2019-03-21T11:57:28.462Z,19.60
2019-03-21T11:58:28.393Z,19.58
2019-03-21T11:59:41.334Z,19.57
2019-03-21T12:00:29.439Z,19.53
2019-03-21T12:01:28.372Z,19.65
2019-03-21T12:02:28.350Z,19.54
2019-03-21T12:03:28.393Z,19.51
2019-03-21T12:04:28.334Z,19.50
2019-03-21T12:05:28.334Z,19.53
2019-03-21T12:06:28.314Z,19.50
2019-03-21T12:07:28.295Z,19.57
2019-03-21T12:08:28.295Z,19.51
2019-03-21T12:09:28.320Z,19.60
2019-03-21T12:10:28.272Z,19.57
2019-03-21T12:11:28.253Z,19.66
2019-03-21T12:12:28.252Z,19.73
2019-03-21T12:13:28.238Z,19.75
2019-03-21T12:14:28.232Z,19.84
2019-03-21T12:15:28.258Z,19.91
2019-03-21T12:16:28.194Z,19.94
2019-03-21T12:17:28.194Z,19.98
2019-03-21T12:18:28.175Z,19.98
2019-03-21T12:19:28.174Z,20.02
2019-03-21T12:20:28.157Z,20.00
2019-03-21T12:21:28.191Z,20.02
2019-03-21T12:22:30.356Z,20.03
2019-03-21T12:23:28.167Z,20.02
2019-03-21T12:24:28.117Z,20.03
2019-03-21T12:25:28.093Z,20.02
2019-03-21T12:26:28.176Z,20.00
2019-03-21T12:27:28.120Z,19.97
2019-03-21T12:28:28.158Z,19.86
2019-03-21T12:29:28.167Z,19.84
2019-03-21T12:30:28.149Z,19.97
2019-03-21T12:31:28.129Z,20.02
2019-03-21T12:32:28.120Z,19.95
2019-03-21T12:33:28.161Z,20.05
2019-03-21T12:34:28.109Z,20.00
2019-03-21T12:35:28.093Z,20.09
2019-03-21T12:36:28.084Z,20.10
2019-03-21T12:37:28.081Z,20.21
2019-03-21T12:38:28.052Z,20.20
2019-03-21T12:39:29.101Z,20.27
2019-03-21T12:40:28.037Z,20.38
2019-03-21T12:41:28.027Z,20.49
2019-03-21T12:42:28.040Z,20.46
2019-03-21T12:43:27.905Z,20.58
2019-03-21T12:44:27.930Z,20.58
2019-03-21T12:45:27.866Z,20.53
2019-03-21T12:46:27.955Z,20.65
2019-03-21T12:47:31.678Z,20.66
2019-03-21T12:48:27.851Z,20.69
2019-03-21T12:49:27.839Z,20.53
2019-03-21T12:50:27.918Z,20.64
2019-03-21T12:51:27.906Z,20.62
2019-03-21T12:52:27.839Z,20.65